Archival Weather

Tokyo Intl

Tokyo, Japan (RJTT)

Report from: Saturday, April 1, 2023 10:30 AM JST
Current time: Sunday, July 14, 2024 7:16 PM JST

Current weather – Weather history – Daily summaries
Weather forecast

Temperature18.0°C (64.4°F)
Dew point13.0°C (55.4°F)
Winds 8 kts (4.1 m/s, 9.2 mph) East-Northeast (60°)
Visibility6.2 mi. (10 km)
Clouds Few clouds 3,000 ft. (914 m)
Altimeter30.00 in.Hg (1016 mB)
Relative humidity73 %
Density altitude469 ft. (143 m)
Remarks No significant changes expected in the next two hours
Flight conditions Visual Meteorological Conditions
Raw dataRJTT 010130Z 06008KT 9999 FEW030 18/13 Q1016 NOSIG
An error has occurred. This application may no longer respond until reloaded. Reload 🗙